createdAt,value
2023-04-28T00:02:24.612Z,7.50
2023-04-28T00:04:53.104Z,8.30
2023-04-28T00:07:21.600Z,8.90
2023-04-28T00:09:49.625Z,11.70
2023-04-28T00:12:17.664Z,9.90
2023-04-28T00:14:45.734Z,7.30
2023-04-28T00:17:14.081Z,10.00
2023-04-28T00:19:42.348Z,8.90
2023-04-28T00:22:10.577Z,7.50
2023-04-28T00:24:38.686Z,5.60
2023-04-28T00:27:07.605Z,10.00
2023-04-28T00:29:36.882Z,10.40
2023-04-28T00:32:05.148Z,8.30
2023-04-28T00:34:34.432Z,8.80
2023-04-28T00:37:02.622Z,5.70
2023-04-28T00:39:30.815Z,9.50
2023-04-28T00:41:58.922Z,6.60
2023-04-28T00:44:27.205Z,8.90
2023-04-28T00:46:55.808Z,9.10
2023-04-28T00:49:23.867Z,8.00
2023-04-28T00:51:52.221Z,9.50
2023-04-28T00:54:20.481Z,9.30
2023-04-28T00:56:49.413Z,8.80
2023-04-28T00:59:17.632Z,10.70
2023-04-28T01:01:46.311Z,7.50
2023-04-28T01:04:16.573Z,6.20
2023-04-28T01:06:44.952Z,9.10
2023-04-28T01:09:13.304Z,9.00
2023-04-28T01:11:42.180Z,7.80
2023-04-28T01:14:18.081Z,8.70
2023-04-28T01:16:47.539Z,11.10
2023-04-28T01:19:22.791Z,9.30
2023-04-28T01:21:51.249Z,8.80
2023-04-28T01:24:23.499Z,7.60
2023-04-28T01:26:51.921Z,7.80
2023-04-28T01:29:19.978Z,8.20
2023-04-28T01:31:48.131Z,9.60
2023-04-28T01:34:16.500Z,9.50
2023-04-28T01:36:44.777Z,8.30
2023-04-28T01:39:12.922Z,7.30
2023-04-28T01:41:42.591Z,12.20
2023-04-28T01:44:11.971Z,10.00
2023-04-28T01:46:40.096Z,6.70
2023-04-28T01:49:08.274Z,6.50
2023-04-28T01:51:36.312Z,8.50
2023-04-28T01:54:04.452Z,10.30
2023-04-28T01:56:32.698Z,9.10
2023-04-28T01:59:01.836Z,7.80
2023-04-28T02:01:30.292Z,8.20
2023-04-28T02:03:58.657Z,13.60
2023-04-28T02:06:28.116Z,8.00
2023-04-28T02:08:58.569Z,8.90
2023-04-28T02:11:26.684Z,8.80
2023-04-28T02:13:57.941Z,11.20
2023-04-28T02:16:26.329Z,7.70
2023-04-28T02:18:54.419Z,9.10
2023-04-28T02:21:22.459Z,8.10
2023-04-28T02:23:51.192Z,7.20
2023-04-28T02:26:19.390Z,10.90
2023-04-28T02:28:49.155Z,8.70
2023-04-28T02:31:18.453Z,14.10
2023-04-28T02:33:48.122Z,7.50
2023-04-28T02:36:16.271Z,10.90
2023-04-28T02:38:45.159Z,8.00
2023-04-28T02:41:15.115Z,7.20
2023-04-28T02:43:43.860Z,7.90
2023-04-28T02:46:12.019Z,7.40
2023-04-28T02:48:40.968Z,11.90
2023-04-28T02:51:09.532Z,11.60
2023-04-28T02:53:37.725Z,11.00
2023-04-28T02:56:06.533Z,13.50
2023-04-28T02:58:35.248Z,10.20
2023-04-28T03:01:03.624Z,7.00
2023-04-28T03:03:31.908Z,8.80
2023-04-28T03:06:00.178Z,7.80
2023-04-28T03:08:28.419Z,7.70
2023-04-28T03:10:56.760Z,7.20
2023-04-28T03:13:25.558Z,11.20
2023-04-28T03:15:53.831Z,6.40
2023-04-28T03:18:23.450Z,8.20
2023-04-28T03:20:51.552Z,8.70
2023-04-28T03:23:21.149Z,11.10
2023-04-28T03:25:49.373Z,7.50
2023-04-28T03:28:17.479Z,5.50
2023-04-28T03:30:46.283Z,6.30
2023-04-28T03:33:14.357Z,8.70
2023-04-28T03:35:42.456Z,6.70
2023-04-28T03:38:10.686Z,8.40
2023-04-28T03:40:38.832Z,8.80
2023-04-28T03:43:13.105Z,11.80
2023-04-28T03:45:51.553Z,5.40
2023-04-28T03:48:19.852Z,8.90
2023-04-28T03:50:48.116Z,9.40
2023-04-28T03:53:17.433Z,7.00
2023-04-28T03:55:45.688Z,8.20
2023-04-28T03:58:14.015Z,11.20
2023-04-28T04:00:42.109Z,10.20
2023-04-28T04:03:10.551Z,7.80
2023-04-28T04:05:41.487Z,10.30
2023-04-28T04:08:09.622Z,6.10
2023-04-28T04:10:37.651Z,6.60
2023-04-28T04:13:05.739Z,9.30
2023-04-28T04:15:34.220Z,3.70
2023-04-28T04:18:02.886Z,11.30
2023-04-28T04:20:39.352Z,6.30
2023-04-28T04:23:08.056Z,9.00
2023-04-28T04:25:36.321Z,7.40
2023-04-28T04:28:05.219Z,6.90
2023-04-28T04:30:33.487Z,7.20
2023-04-28T04:33:01.991Z,6.50
2023-04-28T04:35:30.078Z,9.60
2023-04-28T04:37:58.366Z,11.00
2023-04-28T04:40:26.875Z,9.30
2023-04-28T04:42:56.772Z,7.00
2023-04-28T04:45:28.523Z,6.50
2023-04-28T04:47:58.199Z,7.90
2023-04-28T04:50:26.386Z,10.20
2023-04-28T04:52:57.474Z,8.60
2023-04-28T04:55:26.149Z,13.50
2023-04-28T04:57:54.389Z,8.90
2023-04-28T05:00:41.504Z,10.20
2023-04-28T05:03:10.675Z,7.70
2023-04-28T05:05:40.905Z,10.20
2023-04-28T05:08:21.758Z,6.50
2023-04-28T05:10:49.860Z,8.70
2023-04-28T05:13:18.376Z,10.90
2023-04-28T05:15:46.676Z,8.60
2023-04-28T05:18:36.107Z,12.20
2023-04-28T05:21:04.549Z,9.20
2023-04-28T05:23:34.406Z,13.30
2023-04-28T05:26:04.159Z,9.80
2023-04-28T05:28:33.307Z,8.20
2023-04-28T05:31:02.790Z,12.30
2023-04-28T05:33:31.690Z,9.10
2023-04-28T05:36:00.173Z,8.00
2023-04-28T05:38:28.496Z,9.70
2023-04-28T05:40:56.939Z,12.10
2023-04-28T05:43:25.213Z,10.80
2023-04-28T05:45:55.071Z,6.80
2023-04-28T05:48:23.573Z,8.10
2023-04-28T05:50:51.837Z,9.80
2023-04-28T05:53:20.161Z,6.70
2023-04-28T05:55:49.042Z,12.90
2023-04-28T05:58:18.000Z,7.60
2023-04-28T06:00:47.630Z,8.00
2023-04-28T06:03:19.141Z,9.60
2023-04-28T06:05:48.367Z,7.40
2023-04-28T06:08:16.939Z,10.30
2023-04-28T06:10:45.269Z,9.00
2023-04-28T06:13:14.606Z,11.10
2023-04-28T06:15:43.445Z,8.80
2023-04-28T06:18:11.993Z,10.60
2023-04-28T06:20:40.063Z,8.10
2023-04-28T06:23:09.547Z,7.30
2023-04-28T06:25:44.591Z,12.60
2023-04-28T06:28:14.191Z,7.40
2023-04-28T06:30:42.288Z,9.30
2023-04-28T06:33:10.839Z,9.80
2023-04-28T06:35:40.649Z,9.80
2023-04-28T06:38:08.753Z,12.00
2023-04-28T06:40:41.108Z,9.00
2023-04-28T06:43:09.951Z,9.70
2023-04-28T06:46:01.694Z,8.50
2023-04-28T06:48:30.215Z,8.90
2023-04-28T06:50:58.277Z,7.80
2023-04-28T06:53:26.320Z,7.60
2023-04-28T06:55:54.692Z,8.10
2023-04-28T06:58:23.118Z,8.20
2023-04-28T07:00:51.577Z,6.80
2023-04-28T07:03:20.030Z,6.40
2023-04-28T07:05:48.743Z,4.50
2023-04-28T07:08:17.782Z,5.60
2023-04-28T07:10:45.799Z,8.80
2023-04-28T07:13:14.151Z,6.20
2023-04-28T07:15:42.454Z,4.90
2023-04-28T07:18:10.634Z,6.60
2023-04-28T07:20:38.711Z,9.00
2023-04-28T07:23:07.177Z,7.60
2023-04-28T07:25:36.484Z,6.90
2023-04-28T07:28:05.868Z,4.20
2023-04-28T07:30:34.928Z,7.00
2023-04-28T07:33:03.416Z,4.90
2023-04-28T07:35:31.677Z,6.30
2023-04-28T07:37:59.984Z,4.70
2023-04-28T07:40:28.252Z,4.50
2023-04-28T07:42:56.297Z,5.20
2023-04-28T07:45:24.407Z,5.10
2023-04-28T07:47:52.530Z,6.10
2023-04-28T07:50:21.133Z,5.30
2023-04-28T07:52:49.387Z,5.90
2023-04-28T07:55:17.515Z,6.50
2023-04-28T07:57:45.955Z,8.20
2023-04-28T08:00:14.988Z,7.70
2023-04-28T08:02:43.196Z,8.40
2023-04-28T08:05:12.115Z,7.80
2023-04-28T08:07:40.648Z,8.10
2023-04-28T08:10:10.742Z,4.60
2023-04-28T08:12:40.921Z,8.40
2023-04-28T08:15:10.414Z,7.40
2023-04-28T08:17:39.126Z,6.70
2023-04-28T08:20:08.031Z,4.90
2023-04-28T08:22:36.422Z,5.00
2023-04-28T08:25:04.912Z,6.40
2023-04-28T08:27:34.231Z,4.90
2023-04-28T08:30:02.806Z,6.50
2023-04-28T08:32:31.137Z,5.80
2023-04-28T08:34:59.277Z,5.70
2023-04-28T08:37:28.123Z,8.50
2023-04-28T08:40:02.281Z,5.40
2023-04-28T08:42:32.130Z,9.10
2023-04-28T08:45:00.272Z,8.10
2023-04-28T08:47:41.542Z,6.30
2023-04-28T08:50:10.256Z,4.30
2023-04-28T08:52:39.615Z,6.90
2023-04-28T08:55:10.563Z,6.90
2023-04-28T08:57:59.183Z,9.00
2023-04-28T09:00:27.391Z,4.00
2023-04-28T09:02:55.850Z,3.90
2023-04-28T09:05:24.325Z,7.30
2023-04-28T09:07:53.814Z,4.10
2023-04-28T09:10:26.677Z,6.70
2023-04-28T09:12:56.266Z,5.90
2023-04-28T09:15:33.861Z,4.20
2023-04-28T09:18:08.185Z,6.20
2023-04-28T09:20:37.262Z,6.50
2023-04-28T09:23:20.488Z,3.30
2023-04-28T09:25:59.312Z,4.30
2023-04-28T09:28:29.205Z,4.70
2023-04-28T09:30:57.440Z,6.30
2023-04-28T09:33:26.009Z,11.90
2023-04-28T09:35:54.980Z,5.00
2023-04-28T09:38:23.701Z,4.50
2023-04-28T09:40:59.872Z,8.30
2023-04-28T09:43:33.335Z,9.40
2023-04-28T09:46:06.489Z,5.50
2023-04-28T09:48:38.123Z,6.50
2023-04-28T09:51:08.165Z,6.10
2023-04-28T09:53:36.925Z,5.20
2023-04-28T09:56:05.506Z,5.90
2023-04-28T09:58:40.404Z,4.70
2023-04-28T10:01:11.752Z,5.80
2023-04-28T10:03:43.727Z,6.20
2023-04-28T10:06:11.920Z,5.10
2023-04-28T10:08:41.522Z,6.50
2023-04-28T10:11:10.758Z,7.60
2023-04-28T10:13:39.231Z,4.20
2023-04-28T10:16:08.284Z,7.60
2023-04-28T10:18:39.180Z,4.70
2023-04-28T10:21:08.485Z,8.10
2023-04-28T10:24:05.192Z,4.00
2023-04-28T10:27:09.392Z,4.60
2023-04-28T10:29:38.296Z,5.20
2023-04-28T10:32:19.876Z,9.10
2023-04-28T10:34:48.529Z,4.50
2023-04-28T10:37:18.513Z,4.70
2023-04-28T10:40:36.069Z,4.50
2023-04-28T10:43:05.132Z,8.60
2023-04-28T10:45:57.573Z,4.20
2023-04-28T10:48:29.555Z,7.20
2023-04-28T10:51:04.242Z,4.70
2023-04-28T10:53:52.062Z,3.40
2023-04-28T10:56:25.451Z,8.10
2023-04-28T10:59:00.524Z,2.70
2023-04-28T11:01:32.193Z,4.80
2023-04-28T11:04:18.278Z,6.40
2023-04-28T11:06:48.113Z,5.30
2023-04-28T11:09:16.211Z,3.90
2023-04-28T11:11:59.703Z,8.30
2023-04-28T11:14:33.807Z,5.80
2023-04-28T11:17:07.134Z,5.20
2023-04-28T11:19:35.185Z,4.20
2023-04-28T11:22:23.725Z,6.00
2023-04-28T11:24:59.932Z,7.60
2023-04-28T11:27:30.413Z,5.70
2023-04-28T11:29:59.870Z,4.30
2023-04-28T11:32:29.097Z,3.70
2023-04-28T11:34:57.433Z,4.10
2023-04-28T11:37:25.866Z,5.50
2023-04-28T11:39:54.300Z,5.70
2023-04-28T11:42:22.728Z,6.10
2023-04-28T11:44:55.026Z,6.40
2023-04-28T11:47:34.472Z,4.50
2023-04-28T11:50:03.430Z,4.10
2023-04-28T11:52:31.691Z,9.40
2023-04-28T11:55:02.557Z,7.80
2023-04-28T11:57:30.787Z,9.60
2023-04-28T12:00:20.036Z,12.90
2023-04-28T12:02:48.926Z,8.40
2023-04-28T12:05:17.398Z,9.10
2023-04-28T12:07:46.056Z,9.00
2023-04-28T12:10:19.057Z,11.00
2023-04-28T12:12:52.682Z,8.70
2023-04-28T12:15:22.943Z,9.50
2023-04-28T12:17:51.904Z,8.10
2023-04-28T12:20:35.361Z,6.70
2023-04-28T12:23:03.894Z,7.80
2023-04-28T12:25:34.117Z,8.00
2023-04-28T12:28:04.765Z,6.10
2023-04-28T12:30:35.332Z,11.00
2023-04-28T12:33:04.358Z,10.80
2023-04-28T12:35:33.341Z,8.30
2023-04-28T12:38:01.504Z,9.00
2023-04-28T12:40:29.749Z,9.80
2023-04-28T12:42:57.964Z,8.60
2023-04-28T12:45:26.284Z,6.80
2023-04-28T12:47:55.613Z,11.50
2023-04-28T12:50:25.801Z,6.10
2023-04-28T12:52:53.869Z,9.10
2023-04-28T12:55:21.937Z,7.90
2023-04-28T12:57:50.243Z,9.60
2023-04-28T13:00:21.382Z,8.70
2023-04-28T13:02:51.468Z,14.10
2023-04-28T13:05:20.203Z,14.00
2023-04-28T13:07:50.857Z,10.40
2023-04-28T13:10:19.273Z,10.80
2023-04-28T13:12:47.502Z,9.20
2023-04-28T13:15:15.942Z,10.50
2023-04-28T13:17:46.426Z,11.10
2023-04-28T13:20:14.652Z,10.00
2023-04-28T13:22:42.963Z,9.90
2023-04-28T13:25:11.770Z,8.40
2023-04-28T13:27:41.917Z,7.60
2023-04-28T13:30:12.214Z,11.20
2023-04-28T13:32:40.732Z,8.80
2023-04-28T13:35:09.682Z,9.50
2023-04-28T13:37:42.794Z,7.90
2023-04-28T13:40:11.867Z,9.90
2023-04-28T13:42:40.165Z,9.60
2023-04-28T13:45:08.647Z,12.00
2023-04-28T13:47:36.728Z,11.60
2023-04-28T13:50:05.215Z,13.20
2023-04-28T13:52:33.307Z,13.20
2023-04-28T13:55:01.441Z,12.10
2023-04-28T13:57:29.748Z,9.70
2023-04-28T13:59:57.905Z,10.70
2023-04-28T14:02:27.522Z,9.70
2023-04-28T14:04:56.023Z,9.10
2023-04-28T14:07:24.272Z,11.80
2023-04-28T14:09:52.383Z,8.40
2023-04-28T14:12:20.596Z,11.00
2023-04-28T14:14:49.581Z,8.30
2023-04-28T14:17:17.856Z,10.00
2023-04-28T14:19:46.841Z,10.90
2023-04-28T14:22:15.203Z,13.40
2023-04-28T14:24:43.696Z,9.90
2023-04-28T14:27:11.771Z,11.40
2023-04-28T14:29:40.172Z,12.10
2023-04-28T14:32:08.305Z,11.30
2023-04-28T14:34:36.606Z,12.20
2023-04-28T14:37:04.761Z,7.70
2023-04-28T14:39:32.890Z,9.80
2023-04-28T14:42:00.962Z,8.40
2023-04-28T14:44:29.096Z,11.30
2023-04-28T14:46:57.237Z,7.80
2023-04-28T14:49:27.585Z,8.90
2023-04-28T14:51:55.731Z,10.80
2023-04-28T14:54:23.964Z,8.90
2023-04-28T14:56:52.031Z,11.20
2023-04-28T14:59:20.690Z,12.70
2023-04-28T15:01:50.810Z,11.20
2023-04-28T15:04:19.570Z,11.20
2023-04-28T15:06:48.172Z,8.20
2023-04-28T15:09:16.320Z,7.30
2023-04-28T15:11:44.333Z,7.60
2023-04-28T15:14:12.435Z,7.40
2023-04-28T15:16:40.892Z,9.30
2023-04-28T15:19:08.998Z,10.10
2023-04-28T15:21:37.421Z,11.40
2023-04-28T15:24:05.855Z,9.90
2023-04-28T15:26:33.883Z,9.70
2023-04-28T15:29:02.319Z,10.10
2023-04-28T15:31:30.518Z,7.70
2023-04-28T15:33:58.946Z,9.20
2023-04-28T15:36:27.075Z,10.90
2023-04-28T15:38:56.316Z,11.90
2023-04-28T15:41:25.096Z,14.00
2023-04-28T15:43:53.434Z,9.30
2023-04-28T15:46:21.784Z,10.90
2023-04-28T15:48:50.094Z,9.10
2023-04-28T15:51:18.751Z,10.20
2023-04-28T15:53:46.815Z,5.80
2023-04-28T15:56:15.079Z,6.70
2023-04-28T15:58:43.803Z,7.80
2023-04-28T16:01:11.860Z,7.60
2023-04-28T16:03:40.491Z,7.10
2023-04-28T16:06:09.565Z,5.70
2023-04-28T16:08:37.830Z,8.00
2023-04-28T16:11:06.087Z,11.40
2023-04-28T16:13:37.155Z,8.20
2023-04-28T16:16:07.636Z,8.30
2023-04-28T16:18:36.879Z,10.40
2023-04-28T16:21:05.155Z,9.40
2023-04-28T16:23:33.559Z,12.10
2023-04-28T16:26:01.651Z,7.50
2023-04-28T16:28:29.774Z,11.70
2023-04-28T16:30:57.884Z,12.80
2023-04-28T16:33:25.954Z,12.50
2023-04-28T16:35:56.067Z,8.30
2023-04-28T16:38:24.361Z,10.30
2023-04-28T16:40:52.626Z,9.80
2023-04-28T16:43:21.253Z,12.80
2023-04-28T16:45:49.677Z,11.60
2023-04-28T16:48:18.660Z,12.00
2023-04-28T16:50:46.828Z,12.40
2023-04-28T16:53:14.969Z,12.80
2023-04-28T16:55:43.264Z,10.20
2023-04-28T16:58:11.737Z,12.40
2023-04-28T17:00:39.811Z,13.00
2023-04-28T17:03:08.104Z,14.00
2023-04-28T17:05:36.707Z,9.60
2023-04-28T17:08:04.877Z,13.80
2023-04-28T17:10:33.060Z,12.70
2023-04-28T17:13:01.380Z,10.20
2023-04-28T17:15:29.980Z,10.10
2023-04-28T17:17:58.148Z,8.50
2023-04-28T17:20:26.388Z,10.60
2023-04-28T17:22:54.816Z,8.90
2023-04-28T17:25:24.047Z,9.60
2023-04-28T17:27:52.276Z,13.80
2023-04-28T17:30:20.509Z,13.30
2023-04-28T17:32:48.652Z,14.00
2023-04-28T17:35:16.813Z,9.60
2023-04-28T17:37:45.007Z,10.10
2023-04-28T17:40:13.405Z,13.60
2023-04-28T17:42:41.807Z,14.00
2023-04-28T17:45:10.939Z,10.20
2023-04-28T17:47:39.181Z,13.80
2023-04-28T17:50:07.986Z,10.90
2023-04-28T17:52:36.513Z,9.20
2023-04-28T17:55:05.124Z,7.70
2023-04-28T17:57:33.391Z,12.30
2023-04-28T18:00:01.742Z,7.50
2023-04-28T18:02:40.109Z,8.00
2023-04-28T18:05:09.086Z,7.60
2023-04-28T18:07:37.849Z,7.50
2023-04-28T18:10:06.300Z,8.90
2023-04-28T18:12:34.620Z,6.70
2023-04-28T18:15:03.019Z,8.70
2023-04-28T18:17:31.576Z,9.70
2023-04-28T18:20:00.004Z,8.60
2023-04-28T18:22:28.298Z,8.20
2023-04-28T18:24:57.745Z,10.70
2023-04-28T18:27:26.060Z,9.10
2023-04-28T18:29:54.138Z,10.50
2023-04-28T18:32:22.574Z,8.80
2023-04-28T18:34:50.718Z,11.30
2023-04-28T18:37:19.089Z,10.90
2023-04-28T18:39:47.453Z,9.90
2023-04-28T18:42:15.445Z,9.70
2023-04-28T18:44:43.514Z,13.40
2023-04-28T18:47:12.899Z,12.00
2023-04-28T18:49:41.058Z,9.40
2023-04-28T18:52:09.082Z,9.90
2023-04-28T18:54:37.535Z,8.40
2023-04-28T18:57:06.728Z,8.10
2023-04-28T18:59:34.898Z,9.70
2023-04-28T19:02:03.456Z,11.20
2023-04-28T19:04:31.554Z,9.00
2023-04-28T19:06:59.669Z,11.70
2023-04-28T19:09:28.016Z,6.80
2023-04-28T19:11:56.788Z,9.10
2023-04-28T19:14:25.082Z,10.60
2023-04-28T19:16:53.464Z,11.50
2023-04-28T19:19:21.700Z,11.60
2023-04-28T19:21:50.957Z,9.10
2023-04-28T19:24:19.310Z,12.00
2023-04-28T19:26:47.376Z,8.10
2023-04-28T19:29:17.394Z,6.40
2023-04-28T19:31:45.891Z,8.90
2023-04-28T19:34:14.175Z,5.00
2023-04-28T19:36:42.431Z,7.60
2023-04-28T19:39:10.428Z,9.10
2023-04-28T19:41:38.436Z,9.40
2023-04-28T19:44:06.465Z,12.20
2023-04-28T19:46:34.631Z,11.00
2023-04-28T19:49:03.653Z,9.00
2023-04-28T19:51:31.741Z,7.00
2023-04-28T19:53:59.953Z,9.40
2023-04-28T19:56:28.436Z,9.30
2023-04-28T19:58:56.454Z,8.30
2023-04-28T20:01:24.691Z,7.20
2023-04-28T20:03:54.299Z,8.90
2023-04-28T20:06:22.526Z,9.00
2023-04-28T20:08:51.133Z,10.80
2023-04-28T20:11:19.741Z,7.30
2023-04-28T20:13:48.473Z,7.60
2023-04-28T20:16:17.339Z,12.50
2023-04-28T20:18:45.970Z,8.40
2023-04-28T20:21:14.087Z,8.40
2023-04-28T20:23:42.373Z,8.10
2023-04-28T20:26:16.627Z,11.00
2023-04-28T20:28:46.777Z,12.90
2023-04-28T20:31:15.471Z,8.40
2023-04-28T20:33:43.605Z,12.60
2023-04-28T20:36:13.050Z,9.20
2023-04-28T20:38:43.484Z,7.00
2023-04-28T20:41:12.266Z,9.10
2023-04-28T20:43:41.104Z,11.40
2023-04-28T20:46:10.409Z,13.90
2023-04-28T20:48:38.620Z,10.80
2023-04-28T20:51:07.612Z,11.40
2023-04-28T20:53:35.749Z,12.60
2023-04-28T20:56:04.240Z,13.40
2023-04-28T20:58:32.398Z,11.90
2023-04-28T21:01:01.487Z,11.20
2023-04-28T21:03:30.835Z,11.80
2023-04-28T21:05:59.125Z,7.90
2023-04-28T21:08:29.421Z,11.40
2023-04-28T21:10:57.450Z,11.00
2023-04-28T21:13:25.516Z,8.60
2023-04-28T21:15:53.947Z,11.20
2023-04-28T21:18:22.008Z,9.70
2023-04-28T21:20:51.249Z,14.70
2023-04-28T21:23:19.810Z,16.20
2023-04-28T21:25:47.958Z,11.50
2023-04-28T21:28:16.458Z,16.40
2023-04-28T21:30:44.498Z,9.10
2023-04-28T21:33:12.669Z,12.10
2023-04-28T21:35:40.748Z,11.60
2023-04-28T21:38:10.992Z,9.10
2023-04-28T21:40:39.370Z,7.90
2023-04-28T21:43:08.301Z,13.30
2023-04-28T21:45:36.462Z,9.90
2023-04-28T21:48:04.974Z,13.70
2023-04-28T21:50:33.095Z,13.50
2023-04-28T21:53:01.149Z,11.10
2023-04-28T21:55:29.309Z,7.40
2023-04-28T21:57:59.997Z,8.20
2023-04-28T22:00:28.557Z,7.90
2023-04-28T22:02:57.892Z,7.60
2023-04-28T22:05:26.221Z,8.40
2023-04-28T22:07:54.272Z,10.30
2023-04-28T22:10:22.914Z,6.70
2023-04-28T22:12:51.023Z,11.40
2023-04-28T22:15:19.254Z,21.60
2023-04-28T22:17:47.799Z,12.50
2023-04-28T22:20:16.067Z,14.50
2023-04-28T22:22:44.123Z,16.90
2023-04-28T22:25:12.442Z,22.80
2023-04-28T22:27:40.696Z,22.80
2023-04-28T22:30:10.047Z,28.60
2023-04-28T22:32:38.390Z,30.10
2023-04-28T22:35:07.124Z,35.00
2023-04-28T22:37:35.570Z,31.50
2023-04-28T22:40:04.734Z,32.40
2023-04-28T22:42:42.837Z,24.70
2023-04-28T22:45:11.915Z,33.90
2023-04-28T22:47:41.180Z,20.90
2023-04-28T22:50:10.908Z,20.40
2023-04-28T22:52:39.311Z,22.30
2023-04-28T22:55:07.919Z,15.20
2023-04-28T22:57:36.582Z,17.10
2023-04-28T23:00:06.030Z,19.10
2023-04-28T23:02:34.240Z,19.30
2023-04-28T23:05:02.496Z,18.50
2023-04-28T23:07:30.676Z,16.20
2023-04-28T23:09:58.757Z,18.50
2023-04-28T23:12:26.944Z,12.20
2023-04-28T23:14:55.777Z,18.10
2023-04-28T23:17:24.633Z,16.50
2023-04-28T23:19:52.873Z,19.00
2023-04-28T23:22:21.413Z,14.60
2023-04-28T23:24:49.447Z,17.10
2023-04-28T23:27:17.859Z,14.70
2023-04-28T23:29:45.942Z,18.70
2023-04-28T23:32:13.960Z,22.00
2023-04-28T23:34:42.848Z,18.80
2023-04-28T23:37:10.947Z,21.80
2023-04-28T23:39:38.987Z,18.20
2023-04-28T23:42:07.528Z,19.00
2023-04-28T23:44:35.793Z,17.00
2023-04-28T23:47:03.840Z,16.00
2023-04-28T23:49:31.896Z,20.60
2023-04-28T23:51:59.928Z,15.10
2023-04-28T23:54:27.968Z,19.40
2023-04-28T23:56:56.994Z,18.50
2023-04-28T23:59:25.787Z,21.80
